sensor_id;sensor_type;location;lat;lon;timestamp;P1;durP1;ratioP1;P2;durP2;ratioP2
10939;SDS011;5522;42.696;23.494;2022-08-19T00:00:32;3.75;;;3.55;;
10939;SDS011;5522;42.696;23.494;2022-08-19T00:02:59;3.95;;;3.75;;
10939;SDS011;5522;42.696;23.494;2022-08-19T00:05:26;10.13;;;4.05;;
10939;SDS011;5522;42.696;23.494;2022-08-19T00:07:53;4.18;;;3.63;;
10939;SDS011;5522;42.696;23.494;2022-08-19T00:10:21;4.50;;;4.28;;
10939;SDS011;5522;42.696;23.494;2022-08-19T00:12:49;4.43;;;3.92;;
10939;SDS011;5522;42.696;23.494;2022-08-19T00:15:17;4.07;;;3.78;;
10939;SDS011;5522;42.696;23.494;2022-08-19T00:17:47;4.45;;;4.10;;
10939;SDS011;5522;42.696;23.494;2022-08-19T00:22:49;4.30;;;3.95;;
10939;SDS011;5522;42.696;23.494;2022-08-19T00:25:17;4.13;;;3.88;;
10939;SDS011;5522;42.696;23.494;2022-08-19T00:27:45;4.30;;;4.00;;
10939;SDS011;5522;42.696;23.494;2022-08-19T00:30:13;4.60;;;4.15;;
10939;SDS011;5522;42.696;23.494;2022-08-19T00:32:40;4.20;;;3.85;;
10939;SDS011;5522;42.696;23.494;2022-08-19T00:35:07;3.40;;;3.30;;
10939;SDS011;5522;42.696;23.494;2022-08-19T00:37:36;4.15;;;3.85;;
10939;SDS011;5522;42.696;23.494;2022-08-19T00:40:08;11.18;;;4.07;;
10939;SDS011;5522;42.696;23.494;2022-08-19T00:42:36;4.47;;;3.53;;
10939;SDS011;5522;42.696;23.494;2022-08-19T00:45:05;5.55;;;3.95;;
10939;SDS011;5522;42.696;23.494;2022-08-19T00:47:37;3.83;;;3.58;;
10939;SDS011;5522;42.696;23.494;2022-08-19T00:50:04;5.05;;;4.57;;
10939;SDS011;5522;42.696;23.494;2022-08-19T00:52:34;4.13;;;3.60;;
10939;SDS011;5522;42.696;23.494;2022-08-19T00:55:07;6.13;;;3.70;;
10939;SDS011;5522;42.696;23.494;2022-08-19T00:57:37;5.53;;;4.20;;
10939;SDS011;5522;42.696;23.494;2022-08-19T01:05:33;4.20;;;3.80;;
10939;SDS011;5522;42.696;23.494;2022-08-19T01:08:02;4.47;;;4.15;;
10939;SDS011;5522;42.696;23.494;2022-08-19T01:10:36;4.85;;;4.50;;
10939;SDS011;5522;42.696;23.494;2022-08-19T01:13:05;4.63;;;4.43;;
10939;SDS011;5522;42.696;23.494;2022-08-19T01:15:33;5.95;;;4.93;;
10939;SDS011;5522;42.696;23.494;2022-08-19T01:18:06;5.72;;;5.07;;
10939;SDS011;5522;42.696;23.494;2022-08-19T01:20:37;5.45;;;5.03;;
10939;SDS011;5522;42.696;23.494;2022-08-19T01:23:06;4.32;;;4.13;;
10939;SDS011;5522;42.696;23.494;2022-08-19T01:25:34;5.55;;;4.63;;
10939;SDS011;5522;42.696;23.494;2022-08-19T01:28:12;4.78;;;4.47;;
10939;SDS011;5522;42.696;23.494;2022-08-19T01:30:41;4.45;;;4.25;;
10939;SDS011;5522;42.696;23.494;2022-08-19T01:33:08;3.65;;;3.40;;
10939;SDS011;5522;42.696;23.494;2022-08-19T01:35:35;4.03;;;3.90;;
10939;SDS011;5522;42.696;23.494;2022-08-19T01:38:04;4.28;;;4.07;;
10939;SDS011;5522;42.696;23.494;2022-08-19T01:40:36;4.70;;;3.78;;
10939;SDS011;5522;42.696;23.494;2022-08-19T01:43:07;3.72;;;3.63;;
10939;SDS011;5522;42.696;23.494;2022-08-19T01:45:34;4.80;;;4.40;;
10939;SDS011;5522;42.696;23.494;2022-08-19T01:48:02;4.97;;;4.70;;
10939;SDS011;5522;42.696;23.494;2022-08-19T01:50:30;4.68;;;4.28;;
10939;SDS011;5522;42.696;23.494;2022-08-19T01:52:59;4.43;;;4.22;;
10939;SDS011;5522;42.696;23.494;2022-08-19T01:55:28;4.57;;;4.38;;
10939;SDS011;5522;42.696;23.494;2022-08-19T01:57:55;4.97;;;4.53;;
10939;SDS011;5522;42.696;23.494;2022-08-19T02:00:27;4.32;;;4.07;;
10939;SDS011;5522;42.696;23.494;2022-08-19T02:02:56;4.18;;;3.92;;
10939;SDS011;5522;42.696;23.494;2022-08-19T02:05:23;4.55;;;4.30;;
10939;SDS011;5522;42.696;23.494;2022-08-19T02:07:50;4.80;;;4.60;;
10939;SDS011;5522;42.696;23.494;2022-08-19T02:10:18;4.78;;;4.38;;
10939;SDS011;5522;42.696;23.494;2022-08-19T02:12:48;8.77;;;5.45;;
10939;SDS011;5522;42.696;23.494;2022-08-19T02:15:15;4.93;;;4.72;;
10939;SDS011;5522;42.696;23.494;2022-08-19T02:17:44;5.03;;;4.70;;
10939;SDS011;5522;42.696;23.494;2022-08-19T02:20:11;5.68;;;5.18;;
10939;SDS011;5522;42.696;23.494;2022-08-19T02:22:38;7.57;;;5.05;;
10939;SDS011;5522;42.696;23.494;2022-08-19T02:25:07;4.38;;;4.07;;
10939;SDS011;5522;42.696;23.494;2022-08-19T02:27:35;6.03;;;5.22;;
10939;SDS011;5522;42.696;23.494;2022-08-19T02:30:04;5.28;;;4.97;;
10939;SDS011;5522;42.696;23.494;2022-08-19T02:32:33;6.05;;;5.75;;
10939;SDS011;5522;42.696;23.494;2022-08-19T02:35:00;5.50;;;5.00;;
10939;SDS011;5522;42.696;23.494;2022-08-19T02:37:28;5.43;;;5.22;;
10939;SDS011;5522;42.696;23.494;2022-08-19T02:40:12;6.40;;;5.78;;
10939;SDS011;5522;42.696;23.494;2022-08-19T02:42:40;5.45;;;5.03;;
10939;SDS011;5522;42.696;23.494;2022-08-19T02:45:09;6.07;;;5.45;;
10939;SDS011;5522;42.696;23.494;2022-08-19T02:47:36;4.93;;;4.32;;
10939;SDS011;5522;42.696;23.494;2022-08-19T02:50:04;4.13;;;3.75;;
10939;SDS011;5522;42.696;23.494;2022-08-19T02:52:32;4.97;;;3.90;;
10939;SDS011;5522;42.696;23.494;2022-08-19T02:55:00;4.30;;;4.00;;
10939;SDS011;5522;42.696;23.494;2022-08-19T02:57:27;8.32;;;4.22;;
10939;SDS011;5522;42.696;23.494;2022-08-19T02:59:56;4.28;;;4.07;;
10939;SDS011;5522;42.696;23.494;2022-08-19T03:02:25;5.18;;;4.82;;
10939;SDS011;5522;42.696;23.494;2022-08-19T03:04:52;5.10;;;4.70;;
10939;SDS011;5522;42.696;23.494;2022-08-19T03:07:19;5.55;;;5.07;;
10939;SDS011;5522;42.696;23.494;2022-08-19T03:09:46;5.40;;;5.00;;
10939;SDS011;5522;42.696;23.494;2022-08-19T03:12:13;5.47;;;5.00;;
10939;SDS011;5522;42.696;23.494;2022-08-19T03:14:40;5.60;;;5.18;;
10939;SDS011;5522;42.696;23.494;2022-08-19T03:17:07;5.18;;;4.78;;
10939;SDS011;5522;42.696;23.494;2022-08-19T03:19:36;6.18;;;5.60;;
10939;SDS011;5522;42.696;23.494;2022-08-19T03:22:03;5.47;;;5.18;;
10939;SDS011;5522;42.696;23.494;2022-08-19T03:24:30;4.82;;;4.72;;
10939;SDS011;5522;42.696;23.494;2022-08-19T03:26:57;5.38;;;5.18;;
10939;SDS011;5522;42.696;23.494;2022-08-19T03:29:25;5.68;;;5.32;;
10939;SDS011;5522;42.696;23.494;2022-08-19T03:31:54;5.88;;;5.55;;
10939;SDS011;5522;42.696;23.494;2022-08-19T03:34:22;5.30;;;4.90;;
10939;SDS011;5522;42.696;23.494;2022-08-19T03:36:53;6.60;;;5.68;;
10939;SDS011;5522;42.696;23.494;2022-08-19T03:39:20;9.00;;;5.00;;
10939;SDS011;5522;42.696;23.494;2022-08-19T03:41:48;6.28;;;5.70;;
10939;SDS011;5522;42.696;23.494;2022-08-19T03:44:17;6.18;;;5.78;;
10939;SDS011;5522;42.696;23.494;2022-08-19T03:46:47;6.32;;;5.85;;
10939;SDS011;5522;42.696;23.494;2022-08-19T03:49:15;6.35;;;5.88;;
10939;SDS011;5522;42.696;23.494;2022-08-19T03:51:44;5.55;;;5.28;;
10939;SDS011;5522;42.696;23.494;2022-08-19T03:54:14;6.43;;;5.75;;
10939;SDS011;5522;42.696;23.494;2022-08-19T03:56:42;6.22;;;5.78;;
10939;SDS011;5522;42.696;23.494;2022-08-19T03:59:12;7.00;;;6.45;;
10939;SDS011;5522;42.696;23.494;2022-08-19T04:01:40;6.45;;;5.22;;
10939;SDS011;5522;42.696;23.494;2022-08-19T04:04:08;5.15;;;4.65;;
10939;SDS011;5522;42.696;23.494;2022-08-19T04:06:36;5.00;;;4.78;;
10939;SDS011;5522;42.696;23.494;2022-08-19T04:09:05;7.60;;;5.03;;
10939;SDS011;5522;42.696;23.494;2022-08-19T04:11:36;5.18;;;4.57;;
10939;SDS011;5522;42.696;23.494;2022-08-19T04:14:07;8.80;;;4.63;;
10939;SDS011;5522;42.696;23.494;2022-08-19T04:16:34;5.75;;;5.15;;
10939;SDS011;5522;42.696;23.494;2022-08-19T04:19:02;6.85;;;4.15;;
10939;SDS011;5522;42.696;23.494;2022-08-19T04:21:30;4.75;;;3.75;;
10939;SDS011;5522;42.696;23.494;2022-08-19T04:23:58;3.63;;;3.53;;
10939;SDS011;5522;42.696;23.494;2022-08-19T04:26:25;3.53;;;3.22;;
10939;SDS011;5522;42.696;23.494;2022-08-19T04:28:58;4.25;;;3.08;;
10939;SDS011;5522;42.696;23.494;2022-08-19T04:31:27;3.95;;;3.10;;
10939;SDS011;5522;42.696;23.494;2022-08-19T04:33:56;4.07;;;3.20;;
10939;SDS011;5522;42.696;23.494;2022-08-19T04:36:26;3.97;;;3.10;;
10939;SDS011;5522;42.696;23.494;2022-08-19T04:38:55;6.63;;;2.97;;
10939;SDS011;5522;42.696;23.494;2022-08-19T04:41:24;3.13;;;1.88;;
10939;SDS011;5522;42.696;23.494;2022-08-19T04:44:11;3.17;;;1.65;;
10939;SDS011;5522;42.696;23.494;2022-08-19T04:46:39;3.55;;;2.38;;
10939;SDS011;5522;42.696;23.494;2022-08-19T04:49:06;2.35;;;2.15;;
10939;SDS011;5522;42.696;23.494;2022-08-19T04:51:34;2.30;;;2.10;;
10939;SDS011;5522;42.696;23.494;2022-08-19T04:54:02;2.50;;;1.75;;
10939;SDS011;5522;42.696;23.494;2022-08-19T04:56:30;2.45;;;1.80;;
10939;SDS011;5522;42.696;23.494;2022-08-19T04:58:57;1.98;;;1.92;;
10939;SDS011;5522;42.696;23.494;2022-08-19T05:01:30;4.38;;;1.83;;
10939;SDS011;5522;42.696;23.494;2022-08-19T05:03:59;1.67;;;1.58;;
10939;SDS011;5522;42.696;23.494;2022-08-19T05:06:26;5.47;;;2.15;;
10939;SDS011;5522;42.696;23.494;2022-08-19T05:08:58;2.15;;;2.05;;
10939;SDS011;5522;42.696;23.494;2022-08-19T05:11:27;2.30;;;2.03;;
10939;SDS011;5522;42.696;23.494;2022-08-19T05:13:55;3.20;;;1.40;;
10939;SDS011;5522;42.696;23.494;2022-08-19T05:16:23;1.77;;;1.65;;
10939;SDS011;5522;42.696;23.494;2022-08-19T05:18:53;3.40;;;1.77;;
10939;SDS011;5522;42.696;23.494;2022-08-19T05:21:39;1.80;;;1.80;;
10939;SDS011;5522;42.696;23.494;2022-08-19T05:24:24;3.03;;;2.10;;
10939;SDS011;5522;42.696;23.494;2022-08-19T05:26:52;2.30;;;2.03;;
10939;SDS011;5522;42.696;23.494;2022-08-19T05:29:22;3.92;;;2.08;;
10939;SDS011;5522;42.696;23.494;2022-08-19T05:31:51;2.50;;;1.50;;
10939;SDS011;5522;42.696;23.494;2022-08-19T05:34:20;4.65;;;1.60;;
10939;SDS011;5522;42.696;23.494;2022-08-19T05:36:50;2.70;;;1.60;;
10939;SDS011;5522;42.696;23.494;2022-08-19T05:39:22;2.72;;;1.95;;
10939;SDS011;5522;42.696;23.494;2022-08-19T05:41:52;1.52;;;1.40;;
10939;SDS011;5522;42.696;23.494;2022-08-19T05:44:22;1.88;;;1.25;;
10939;SDS011;5522;42.696;23.494;2022-08-19T05:46:50;1.50;;;1.40;;
10939;SDS011;5522;42.696;23.494;2022-08-19T05:49:20;4.38;;;3.10;;
10939;SDS011;5522;42.696;23.494;2022-08-19T05:51:48;7.72;;;2.17;;
10939;SDS011;5522;42.696;23.494;2022-08-19T05:54:16;4.07;;;1.88;;
10939;SDS011;5522;42.696;23.494;2022-08-19T05:56:43;1.85;;;1.40;;
10939;SDS011;5522;42.696;23.494;2022-08-19T05:59:13;5.47;;;1.63;;
10939;SDS011;5522;42.696;23.494;2022-08-19T06:01:42;1.98;;;1.63;;
10939;SDS011;5522;42.696;23.494;2022-08-19T06:04:11;1.88;;;1.73;;
10939;SDS011;5522;42.696;23.494;2022-08-19T06:06:41;6.95;;;2.50;;
10939;SDS011;5522;42.696;23.494;2022-08-19T06:09:08;3.03;;;2.83;;
10939;SDS011;5522;42.696;23.494;2022-08-19T06:11:37;2.72;;;1.75;;
10939;SDS011;5522;42.696;23.494;2022-08-19T06:14:06;5.38;;;1.92;;
10939;SDS011;5522;42.696;23.494;2022-08-19T06:16:34;3.33;;;2.05;;
10939;SDS011;5522;42.696;23.494;2022-08-19T06:19:04;5.65;;;5.07;;
10939;SDS011;5522;42.696;23.494;2022-08-19T06:21:33;3.53;;;1.70;;
10939;SDS011;5522;42.696;23.494;2022-08-19T06:24:04;1.80;;;1.75;;
10939;SDS011;5522;42.696;23.494;2022-08-19T06:26:32;2.72;;;1.52;;
10939;SDS011;5522;42.696;23.494;2022-08-19T06:29:01;3.67;;;1.42;;
10939;SDS011;5522;42.696;23.494;2022-08-19T06:31:28;1.83;;;1.17;;
10939;SDS011;5522;42.696;23.494;2022-08-19T06:33:59;5.60;;;5.30;;
10939;SDS011;5522;42.696;23.494;2022-08-19T06:36:28;4.72;;;4.53;;
10939;SDS011;5522;42.696;23.494;2022-08-19T06:38:59;2.10;;;2.00;;
10939;SDS011;5522;42.696;23.494;2022-08-19T06:41:29;1.42;;;1.15;;
10939;SDS011;5522;42.696;23.494;2022-08-19T06:43:57;2.72;;;1.95;;
10939;SDS011;5522;42.696;23.494;2022-08-19T06:46:24;1.77;;;1.23;;
10939;SDS011;5522;42.696;23.494;2022-08-19T06:48:51;7.63;;;4.38;;
10939;SDS011;5522;42.696;23.494;2022-08-19T06:51:19;2.28;;;1.08;;
10939;SDS011;5522;42.696;23.494;2022-08-19T06:53:49;1.88;;;1.38;;
10939;SDS011;5522;42.696;23.494;2022-08-19T06:56:22;4.45;;;1.95;;
10939;SDS011;5522;42.696;23.494;2022-08-19T06:58:57;31.67;;;21.30;;
10939;SDS011;5522;42.696;23.494;2022-08-19T07:01:24;7.80;;;5.38;;
10939;SDS011;5522;42.696;23.494;2022-08-19T07:03:51;4.22;;;1.38;;
10939;SDS011;5522;42.696;23.494;2022-08-19T07:06:18;3.08;;;1.48;;
10939;SDS011;5522;42.696;23.494;2022-08-19T07:08:46;2.40;;;1.17;;
10939;SDS011;5522;42.696;23.494;2022-08-19T07:11:15;1.30;;;0.85;;
10939;SDS011;5522;42.696;23.494;2022-08-19T07:13:44;1.75;;;0.93;;
10939;SDS011;5522;42.696;23.494;2022-08-19T07:16:16;5.68;;;1.00;;
10939;SDS011;5522;42.696;23.494;2022-08-19T07:18:45;1.48;;;1.35;;
10939;SDS011;5522;42.696;23.494;2022-08-19T07:21:14;1.20;;;1.20;;
10939;SDS011;5522;42.696;23.494;2022-08-19T07:23:43;2.70;;;0.73;;
10939;SDS011;5522;42.696;23.494;2022-08-19T07:26:11;3.22;;;0.70;;
10939;SDS011;5522;42.696;23.494;2022-08-19T07:28:40;1.23;;;0.73;;
10939;SDS011;5522;42.696;23.494;2022-08-19T07:31:09;2.40;;;1.10;;
10939;SDS011;5522;42.696;23.494;2022-08-19T07:33:39;1.77;;;0.70;;
10939;SDS011;5522;42.696;23.494;2022-08-19T07:36:09;2.38;;;0.80;;
10939;SDS011;5522;42.696;23.494;2022-08-19T07:38:39;2.17;;;0.85;;
10939;SDS011;5522;42.696;23.494;2022-08-19T07:41:08;1.67;;;0.77;;
10939;SDS011;5522;42.696;23.494;2022-08-19T07:43:37;3.42;;;1.00;;
10939;SDS011;5522;42.696;23.494;2022-08-19T07:46:04;2.40;;;0.80;;
10939;SDS011;5522;42.696;23.494;2022-08-19T07:48:31;2.00;;;0.70;;
10939;SDS011;5522;42.696;23.494;2022-08-19T07:51:01;3.90;;;0.70;;
10939;SDS011;5522;42.696;23.494;2022-08-19T07:53:32;0.63;;;0.63;;
10939;SDS011;5522;42.696;23.494;2022-08-19T07:55:59;0.88;;;0.80;;
10939;SDS011;5522;42.696;23.494;2022-08-19T07:58:29;1.95;;;0.80;;
10939;SDS011;5522;42.696;23.494;2022-08-19T08:00:58;2.47;;;0.70;;
10939;SDS011;5522;42.696;23.494;2022-08-19T08:03:26;1.42;;;0.85;;
10939;SDS011;5522;42.696;23.494;2022-08-19T08:06:09;0.88;;;0.85;;
10939;SDS011;5522;42.696;23.494;2022-08-19T08:08:53;1.02;;;0.70;;
10939;SDS011;5522;42.696;23.494;2022-08-19T08:11:43;1.02;;;0.82;;
10939;SDS011;5522;42.696;23.494;2022-08-19T08:14:14;1.23;;;0.60;;
10939;SDS011;5522;42.696;23.494;2022-08-19T08:16:42;3.85;;;0.80;;
10939;SDS011;5522;42.696;23.494;2022-08-19T08:19:10;3.55;;;0.60;;
10939;SDS011;5522;42.696;23.494;2022-08-19T08:21:41;2.63;;;0.80;;
10939;SDS011;5522;42.696;23.494;2022-08-19T08:24:09;3.92;;;0.73;;
10939;SDS011;5522;42.696;23.494;2022-08-19T08:26:37;2.42;;;0.70;;
10939;SDS011;5522;42.696;23.494;2022-08-19T08:29:04;2.05;;;0.70;;
10939;SDS011;5522;42.696;23.494;2022-08-19T08:31:32;1.80;;;0.70;;
10939;SDS011;5522;42.696;23.494;2022-08-19T08:33:59;2.38;;;0.80;;
10939;SDS011;5522;42.696;23.494;2022-08-19T08:36:26;0.82;;;0.50;;
10939;SDS011;5522;42.696;23.494;2022-08-19T08:38:55;3.03;;;0.85;;
10939;SDS011;5522;42.696;23.494;2022-08-19T08:41:23;3.22;;;0.60;;
10939;SDS011;5522;42.696;23.494;2022-08-19T08:43:57;1.40;;;0.90;;
10939;SDS011;5522;42.696;23.494;2022-08-19T08:46:27;0.73;;;0.60;;
10939;SDS011;5522;42.696;23.494;2022-08-19T08:49:02;1.45;;;0.70;;
10939;SDS011;5522;42.696;23.494;2022-08-19T08:51:35;1.77;;;0.70;;
10939;SDS011;5522;42.696;23.494;2022-08-19T08:54:07;1.23;;;0.50;;
10939;SDS011;5522;42.696;23.494;2022-08-19T08:56:37;3.30;;;0.57;;
10939;SDS011;5522;42.696;23.494;2022-08-19T08:59:05;1.35;;;0.63;;
10939;SDS011;5522;42.696;23.494;2022-08-19T09:01:36;3.05;;;0.50;;
10939;SDS011;5522;42.696;23.494;2022-08-19T09:04:04;2.20;;;0.60;;
10939;SDS011;5522;42.696;23.494;2022-08-19T09:06:36;3.45;;;0.73;;
10939;SDS011;5522;42.696;23.494;2022-08-19T09:09:13;4.47;;;0.60;;
10939;SDS011;5522;42.696;23.494;2022-08-19T09:11:55;7.03;;;0.55;;
10939;SDS011;5522;42.696;23.494;2022-08-19T09:14:34;5.00;;;0.60;;
10939;SDS011;5522;42.696;23.494;2022-08-19T09:17:07;5.07;;;0.60;;
10939;SDS011;5522;42.696;23.494;2022-08-19T09:19:35;4.15;;;0.57;;
10939;SDS011;5522;42.696;23.494;2022-08-19T09:22:13;2.83;;;0.52;;
10939;SDS011;5522;42.696;23.494;2022-08-19T09:24:42;2.75;;;0.60;;
10939;SDS011;5522;42.696;23.494;2022-08-19T09:27:09;3.85;;;0.50;;
10939;SDS011;5522;42.696;23.494;2022-08-19T09:29:36;4.72;;;0.50;;
10939;SDS011;5522;42.696;23.494;2022-08-19T09:32:03;3.22;;;0.60;;
10939;SDS011;5522;42.696;23.494;2022-08-19T09:34:31;0.50;;;0.50;;
10939;SDS011;5522;42.696;23.494;2022-08-19T09:36:58;1.98;;;0.43;;
10939;SDS011;5522;42.696;23.494;2022-08-19T09:39:26;2.35;;;0.55;;
10939;SDS011;5522;42.696;23.494;2022-08-19T09:41:54;3.83;;;0.40;;
10939;SDS011;5522;42.696;23.494;2022-08-19T09:44:21;0.65;;;0.40;;
10939;SDS011;5522;42.696;23.494;2022-08-19T09:46:48;0.55;;;0.45;;
10939;SDS011;5522;42.696;23.494;2022-08-19T09:49:16;5.70;;;0.50;;
10939;SDS011;5522;42.696;23.494;2022-08-19T09:51:44;2.85;;;0.40;;
10939;SDS011;5522;42.696;23.494;2022-08-19T09:54:14;1.30;;;0.40;;
10939;SDS011;5522;42.696;23.494;2022-08-19T09:56:41;2.20;;;0.40;;
10939;SDS011;5522;42.696;23.494;2022-08-19T09:59:09;1.48;;;0.40;;
10939;SDS011;5522;42.696;23.494;2022-08-19T10:01:38;0.40;;;0.40;;
10939;SDS011;5522;42.696;23.494;2022-08-19T10:04:05;0.73;;;0.40;;
10939;SDS011;5522;42.696;23.494;2022-08-19T10:06:34;1.45;;;0.40;;
10939;SDS011;5522;42.696;23.494;2022-08-19T10:09:03;1.75;;;0.40;;
10939;SDS011;5522;42.696;23.494;2022-08-19T10:11:31;1.52;;;0.40;;
10939;SDS011;5522;42.696;23.494;2022-08-19T10:13:59;1.17;;;0.40;;
10939;SDS011;5522;42.696;23.494;2022-08-19T10:16:28;2.17;;;0.47;;
10939;SDS011;5522;42.696;23.494;2022-08-19T10:18:55;0.75;;;0.40;;
10939;SDS011;5522;42.696;23.494;2022-08-19T10:21:22;4.25;;;0.50;;
10939;SDS011;5522;42.696;23.494;2022-08-19T10:23:52;3.53;;;0.60;;
10939;SDS011;5522;42.696;23.494;2022-08-19T10:26:22;1.02;;;0.50;;
10939;SDS011;5522;42.696;23.494;2022-08-19T10:28:51;1.58;;;0.40;;
10939;SDS011;5522;42.696;23.494;2022-08-19T10:31:20;2.25;;;0.50;;
10939;SDS011;5522;42.696;23.494;2022-08-19T10:33:51;2.92;;;0.70;;
10939;SDS011;5522;42.696;23.494;2022-08-19T10:36:24;4.13;;;0.60;;
10939;SDS011;5522;42.696;23.494;2022-08-19T10:38:54;3.88;;;0.68;;
10939;SDS011;5522;42.696;23.494;2022-08-19T10:41:24;1.50;;;0.68;;
10939;SDS011;5522;42.696;23.494;2022-08-19T10:43:53;2.88;;;0.68;;
10939;SDS011;5522;42.696;23.494;2022-08-19T10:46:22;0.93;;;0.55;;
10939;SDS011;5522;42.696;23.494;2022-08-19T10:51:36;2.15;;;0.65;;
10939;SDS011;5522;42.696;23.494;2022-08-19T10:54:35;1.20;;;0.82;;
10939;SDS011;5522;42.696;23.494;2022-08-19T10:57:19;4.47;;;0.60;;
10939;SDS011;5522;42.696;23.494;2022-08-19T10:59:49;1.08;;;0.70;;
10939;SDS011;5522;42.696;23.494;2022-08-19T11:02:16;3.63;;;0.50;;
10939;SDS011;5522;42.696;23.494;2022-08-19T11:04:45;0.90;;;0.88;;
10939;SDS011;5522;42.696;23.494;2022-08-19T11:07:12;1.17;;;0.80;;
10939;SDS011;5522;42.696;23.494;2022-08-19T11:09:40;3.05;;;0.70;;
10939;SDS011;5522;42.696;23.494;2022-08-19T11:12:08;3.22;;;1.00;;
10939;SDS011;5522;42.696;23.494;2022-08-19T11:14:35;2.47;;;0.60;;
10939;SDS011;5522;42.696;23.494;2022-08-19T11:17:03;5.38;;;0.70;;
10939;SDS011;5522;42.696;23.494;2022-08-19T11:19:31;0.73;;;0.73;;
10939;SDS011;5522;42.696;23.494;2022-08-19T11:21:59;0.75;;;0.60;;
10939;SDS011;5522;42.696;23.494;2022-08-19T11:24:28;0.70;;;0.60;;
10939;SDS011;5522;42.696;23.494;2022-08-19T11:27:00;3.60;;;0.77;;
10939;SDS011;5522;42.696;23.494;2022-08-19T11:29:29;2.78;;;0.80;;
10939;SDS011;5522;42.696;23.494;2022-08-19T11:31:59;1.38;;;0.70;;
10939;SDS011;5522;42.696;23.494;2022-08-19T11:34:29;0.82;;;0.82;;
10939;SDS011;5522;42.696;23.494;2022-08-19T11:36:57;1.55;;;0.60;;
10939;SDS011;5522;42.696;23.494;2022-08-19T11:39:27;2.17;;;0.90;;
10939;SDS011;5522;42.696;23.494;2022-08-19T11:41:55;2.35;;;0.80;;
10939;SDS011;5522;42.696;23.494;2022-08-19T11:44:24;2.40;;;0.70;;
10939;SDS011;5522;42.696;23.494;2022-08-19T11:46:52;4.85;;;0.70;;
10939;SDS011;5522;42.696;23.494;2022-08-19T11:49:19;2.15;;;0.60;;
10939;SDS011;5522;42.696;23.494;2022-08-19T11:51:47;3.70;;;0.70;;
10939;SDS011;5522;42.696;23.494;2022-08-19T11:54:15;4.38;;;0.80;;
10939;SDS011;5522;42.696;23.494;2022-08-19T11:56:44;2.08;;;0.60;;
10939;SDS011;5522;42.696;23.494;2022-08-19T11:59:14;5.38;;;0.60;;
10939;SDS011;5522;42.696;23.494;2022-08-19T12:01:41;3.85;;;0.98;;
10939;SDS011;5522;42.696;23.494;2022-08-19T12:04:08;2.78;;;0.80;;
10939;SDS011;5522;42.696;23.494;2022-08-19T12:06:37;2.92;;;0.55;;
10939;SDS011;5522;42.696;23.494;2022-08-19T12:09:06;1.48;;;0.68;;
10939;SDS011;5522;42.696;23.494;2022-08-19T12:11:35;2.15;;;0.85;;
10939;SDS011;5522;42.696;23.494;2022-08-19T12:14:05;3.45;;;0.70;;
10939;SDS011;5522;42.696;23.494;2022-08-19T12:16:33;3.40;;;0.98;;
10939;SDS011;5522;42.696;23.494;2022-08-19T12:19:00;2.10;;;0.70;;
10939;SDS011;5522;42.696;23.494;2022-08-19T12:21:31;2.53;;;0.63;;
10939;SDS011;5522;42.696;23.494;2022-08-19T12:23:59;4.05;;;0.80;;
10939;SDS011;5522;42.696;23.494;2022-08-19T12:26:28;1.67;;;0.65;;
10939;SDS011;5522;42.696;23.494;2022-08-19T12:28:56;1.17;;;0.70;;
10939;SDS011;5522;42.696;23.494;2022-08-19T12:31:26;2.35;;;1.10;;
10939;SDS011;5522;42.696;23.494;2022-08-19T12:33:53;8.32;;;0.98;;
10939;SDS011;5522;42.696;23.494;2022-08-19T12:36:20;3.75;;;0.80;;
10939;SDS011;5522;42.696;23.494;2022-08-19T12:38:48;1.80;;;0.90;;
10939;SDS011;5522;42.696;23.494;2022-08-19T12:41:16;5.93;;;0.70;;
10939;SDS011;5522;42.696;23.494;2022-08-19T12:43:44;2.85;;;0.80;;
10939;SDS011;5522;42.696;23.494;2022-08-19T12:46:14;2.65;;;0.70;;
10939;SDS011;5522;42.696;23.494;2022-08-19T12:48:42;3.28;;;1.00;;
10939;SDS011;5522;42.696;23.494;2022-08-19T12:51:10;0.70;;;0.65;;
10939;SDS011;5522;42.696;23.494;2022-08-19T12:53:39;2.38;;;1.10;;
10939;SDS011;5522;42.696;23.494;2022-08-19T12:56:07;1.33;;;0.90;;
10939;SDS011;5522;42.696;23.494;2022-08-19T12:58:36;2.67;;;0.57;;
10939;SDS011;5522;42.696;23.494;2022-08-19T13:01:06;5.70;;;0.70;;
10939;SDS011;5522;42.696;23.494;2022-08-19T13:03:35;4.95;;;1.05;;
10939;SDS011;5522;42.696;23.494;2022-08-19T13:06:04;2.45;;;0.80;;
10939;SDS011;5522;42.696;23.494;2022-08-19T13:08:31;4.00;;;0.80;;
10939;SDS011;5522;42.696;23.494;2022-08-19T13:11:06;1.40;;;0.75;;
10939;SDS011;5522;42.696;23.494;2022-08-19T13:13:36;2.15;;;0.73;;
10939;SDS011;5522;42.696;23.494;2022-08-19T13:16:06;0.70;;;0.70;;
10939;SDS011;5522;42.696;23.494;2022-08-19T13:18:34;2.30;;;1.02;;
10939;SDS011;5522;42.696;23.494;2022-08-19T13:21:04;2.47;;;0.80;;
10939;SDS011;5522;42.696;23.494;2022-08-19T13:23:33;5.13;;;0.77;;
10939;SDS011;5522;42.696;23.494;2022-08-19T13:26:02;0.82;;;0.82;;
10939;SDS011;5522;42.696;23.494;2022-08-19T13:28:32;4.63;;;0.88;;
10939;SDS011;5522;42.696;23.494;2022-08-19T13:31:14;2.50;;;0.80;;
10939;SDS011;5522;42.696;23.494;2022-08-19T13:34:00;4.68;;;0.90;;
10939;SDS011;5522;42.696;23.494;2022-08-19T13:36:28;5.60;;;1.10;;
10939;SDS011;5522;42.696;23.494;2022-08-19T13:38:55;1.85;;;0.80;;
10939;SDS011;5522;42.696;23.494;2022-08-19T13:41:22;2.65;;;0.73;;
10939;SDS011;5522;42.696;23.494;2022-08-19T13:43:49;1.40;;;0.80;;
10939;SDS011;5522;42.696;23.494;2022-08-19T13:46:17;1.50;;;1.05;;
10939;SDS011;5522;42.696;23.494;2022-08-19T13:48:45;3.40;;;0.80;;
10939;SDS011;5522;42.696;23.494;2022-08-19T13:51:13;2.15;;;0.70;;
10939;SDS011;5522;42.696;23.494;2022-08-19T13:53:42;4.45;;;0.73;;
10939;SDS011;5522;42.696;23.494;2022-08-19T13:56:11;1.65;;;1.10;;
10939;SDS011;5522;42.696;23.494;2022-08-19T13:58:39;2.33;;;0.75;;
10939;SDS011;5522;42.696;23.494;2022-08-19T14:01:07;1.50;;;0.70;;
10939;SDS011;5522;42.696;23.494;2022-08-19T14:03:36;3.63;;;0.80;;
10939;SDS011;5522;42.696;23.494;2022-08-19T14:06:04;0.98;;;0.93;;
10939;SDS011;5522;42.696;23.494;2022-08-19T14:08:31;2.15;;;1.10;;
10939;SDS011;5522;42.696;23.494;2022-08-19T14:10:59;1.25;;;0.85;;
10939;SDS011;5522;42.696;23.494;2022-08-19T14:13:26;3.60;;;0.80;;
10939;SDS011;5522;42.696;23.494;2022-08-19T14:15:53;3.55;;;0.85;;
10939;SDS011;5522;42.696;23.494;2022-08-19T14:18:20;1.80;;;0.75;;
10939;SDS011;5522;42.696;23.494;2022-08-19T14:20:48;1.05;;;0.60;;
10939;SDS011;5522;42.696;23.494;2022-08-19T14:23:15;1.85;;;0.90;;
10939;SDS011;5522;42.696;23.494;2022-08-19T14:25:42;1.27;;;0.82;;
10939;SDS011;5522;42.696;23.494;2022-08-19T14:28:12;2.38;;;0.68;;
10939;SDS011;5522;42.696;23.494;2022-08-19T14:30:39;3.00;;;0.70;;
10939;SDS011;5522;42.696;23.494;2022-08-19T14:33:06;1.67;;;0.88;;
10939;SDS011;5522;42.696;23.494;2022-08-19T14:35:34;4.32;;;0.70;;
10939;SDS011;5522;42.696;23.494;2022-08-19T14:38:02;4.68;;;1.05;;
10939;SDS011;5522;42.696;23.494;2022-08-19T14:40:30;3.78;;;0.98;;
10939;SDS011;5522;42.696;23.494;2022-08-19T14:42:58;0.90;;;0.90;;
10939;SDS011;5522;42.696;23.494;2022-08-19T14:45:30;1.50;;;0.98;;
10939;SDS011;5522;42.696;23.494;2022-08-19T14:47:59;2.80;;;0.82;;
10939;SDS011;5522;42.696;23.494;2022-08-19T14:50:26;1.48;;;0.65;;
10939;SDS011;5522;42.696;23.494;2022-08-19T14:52:57;2.85;;;0.70;;
10939;SDS011;5522;42.696;23.494;2022-08-19T14:55:25;1.85;;;1.10;;
10939;SDS011;5522;42.696;23.494;2022-08-19T14:57:52;1.58;;;0.70;;
10939;SDS011;5522;42.696;23.494;2022-08-19T15:00:19;2.35;;;0.98;;
10939;SDS011;5522;42.696;23.494;2022-08-19T15:02:47;3.95;;;0.70;;
10939;SDS011;5522;42.696;23.494;2022-08-19T15:05:14;5.13;;;0.77;;
10939;SDS011;5522;42.696;23.494;2022-08-19T15:07:42;1.27;;;0.80;;
10939;SDS011;5522;42.696;23.494;2022-08-19T15:10:10;2.90;;;0.93;;